sensor_id;sensor_type;location;lat;lon;timestamp;temperature;humidity
20349;DHT22;10332;50.208;18.988;2022-08-03T00:01:41;19.00;99.90
20349;DHT22;10332;50.208;18.988;2022-08-03T00:04:09;18.90;99.90
20349;DHT22;10332;50.208;18.988;2022-08-03T00:06:37;18.90;99.90
20349;DHT22;10332;50.208;18.988;2022-08-03T00:09:05;18.90;99.90
20349;DHT22;10332;50.208;18.988;2022-08-03T00:11:35;18.80;99.90
20349;DHT22;10332;50.208;18.988;2022-08-03T00:14:05;18.80;99.90
20349;DHT22;10332;50.208;18.988;2022-08-03T00:16:34;18.80;99.90
20349;DHT22;10332;50.208;18.988;2022-08-03T00:19:02;18.70;99.90
20349;DHT22;10332;50.208;18.988;2022-08-03T00:21:30;18.70;99.90
20349;DHT22;10332;50.208;18.988;2022-08-03T00:23:57;18.70;99.90
20349;DHT22;10332;50.208;18.988;2022-08-03T00:26:24;18.70;99.90
20349;DHT22;10332;50.208;18.988;2022-08-03T00:28:52;18.70;99.90
20349;DHT22;10332;50.208;18.988;2022-08-03T00:31:19;18.60;99.90
20349;DHT22;10332;50.208;18.988;2022-08-03T00:34:07;18.60;99.90
20349;DHT22;10332;50.208;18.988;2022-08-03T00:36:34;18.60;99.90
20349;DHT22;10332;50.208;18.988;2022-08-03T00:39:01;18.60;99.90
20349;DHT22;10332;50.208;18.988;2022-08-03T00:41:29;18.60;99.90
20349;DHT22;10332;50.208;18.988;2022-08-03T00:43:56;18.50;99.90
20349;DHT22;10332;50.208;18.988;2022-08-03T00:46:23;18.50;99.90
20349;DHT22;10332;50.208;18.988;2022-08-03T00:48:51;18.50;99.90
20349;DHT22;10332;50.208;18.988;2022-08-03T00:51:19;18.40;99.90
20349;DHT22;10332;50.208;18.988;2022-08-03T00:53:48;18.40;99.90
20349;DHT22;10332;50.208;18.988;2022-08-03T00:56:17;18.40;99.90
20349;DHT22;10332;50.208;18.988;2022-08-03T00:58:45;18.30;99.90
20349;DHT22;10332;50.208;18.988;2022-08-03T01:01:13;18.30;99.90
20349;DHT22;10332;50.208;18.988;2022-08-03T01:03:41;18.30;99.90
20349;DHT22;10332;50.208;18.988;2022-08-03T01:06:17;18.30;99.90
20349;DHT22;10332;50.208;18.988;2022-08-03T01:11:39;18.30;99.90
20349;DHT22;10332;50.208;18.988;2022-08-03T01:14:38;18.30;99.90
20349;DHT22;10332;50.208;18.988;2022-08-03T01:17:39;18.30;99.90
20349;DHT22;10332;50.208;18.988;2022-08-03T01:20:16;18.20;99.90
20349;DHT22;10332;50.208;18.988;2022-08-03T01:32:17;18.10;99.90
20349;DHT22;10332;50.208;18.988;2022-08-03T01:35:16;18.10;99.90
20349;DHT22;10332;50.208;18.988;2022-08-03T01:38:00;18.10;99.90
20349;DHT22;10332;50.208;18.988;2022-08-03T01:40:33;18.10;99.90
20349;DHT22;10332;50.208;18.988;2022-08-03T01:43:08;18.00;99.90
20349;DHT22;10332;50.208;18.988;2022-08-03T01:45:40;18.00;99.90
20349;DHT22;10332;50.208;18.988;2022-08-03T01:48:11;17.90;99.90
20349;DHT22;10332;50.208;18.988;2022-08-03T01:50:44;17.90;99.90
20349;DHT22;10332;50.208;18.988;2022-08-03T01:53:14;17.90;99.90
20349;DHT22;10332;50.208;18.988;2022-08-03T01:55:48;17.90;99.90
20349;DHT22;10332;50.208;18.988;2022-08-03T01:58:21;17.90;99.90
20349;DHT22;10332;50.208;18.988;2022-08-03T02:00:50;17.90;99.90
20349;DHT22;10332;50.208;18.988;2022-08-03T02:03:24;17.80;99.90
20349;DHT22;10332;50.208;18.988;2022-08-03T02:05:56;17.80;99.90
20349;DHT22;10332;50.208;18.988;2022-08-03T02:08:46;17.80;99.90
20349;DHT22;10332;50.208;18.988;2022-08-03T02:11:15;17.80;99.90
20349;DHT22;10332;50.208;18.988;2022-08-03T02:13:43;17.80;99.90
20349;DHT22;10332;50.208;18.988;2022-08-03T02:16:13;17.80;99.90
20349;DHT22;10332;50.208;18.988;2022-08-03T02:18:41;17.80;99.90
20349;DHT22;10332;50.208;18.988;2022-08-03T02:21:09;17.80;99.90
20349;DHT22;10332;50.208;18.988;2022-08-03T02:23:58;17.80;99.90
20349;DHT22;10332;50.208;18.988;2022-08-03T02:26:28;17.80;99.90
20349;DHT22;10332;50.208;18.988;2022-08-03T02:29:03;17.80;99.90
20349;DHT22;10332;50.208;18.988;2022-08-03T02:31:45;17.80;99.90
20349;DHT22;10332;50.208;18.988;2022-08-03T02:34:16;17.80;99.90
20349;DHT22;10332;50.208;18.988;2022-08-03T02:36:49;17.80;99.90
20349;DHT22;10332;50.208;18.988;2022-08-03T02:39:21;17.80;99.90
20349;DHT22;10332;50.208;18.988;2022-08-03T02:41:53;17.80;99.90
20349;DHT22;10332;50.208;18.988;2022-08-03T02:44:30;17.80;99.90
20349;DHT22;10332;50.208;18.988;2022-08-03T02:47:08;17.80;99.90
20349;DHT22;10332;50.208;18.988;2022-08-03T02:49:37;17.70;99.90
20349;DHT22;10332;50.208;18.988;2022-08-03T02:52:21;17.70;99.90
20349;DHT22;10332;50.208;18.988;2022-08-03T02:54:54;17.70;99.90
20349;DHT22;10332;50.208;18.988;2022-08-03T02:57:26;17.70;99.90
20349;DHT22;10332;50.208;18.988;2022-08-03T02:59:57;17.70;99.90
20349;DHT22;10332;50.208;18.988;2022-08-03T03:02:27;17.70;99.90
20349;DHT22;10332;50.208;18.988;2022-08-03T03:04:55;17.70;99.90
20349;DHT22;10332;50.208;18.988;2022-08-03T03:07:46;17.70;99.90
20349;DHT22;10332;50.208;18.988;2022-08-03T03:10:21;17.70;99.90
20349;DHT22;10332;50.208;18.988;2022-08-03T03:12:56;17.60;99.90
20349;DHT22;10332;50.208;18.988;2022-08-03T03:15:26;17.60;99.90
20349;DHT22;10332;50.208;18.988;2022-08-03T03:17:55;17.60;99.90
20349;DHT22;10332;50.208;18.988;2022-08-03T03:20:24;17.60;99.90
20349;DHT22;10332;50.208;18.988;2022-08-03T03:23:00;17.60;99.90
20349;DHT22;10332;50.208;18.988;2022-08-03T03:25:32;17.60;99.90
20349;DHT22;10332;50.208;18.988;2022-08-03T03:28:00;17.50;99.90
20349;DHT22;10332;50.208;18.988;2022-08-03T03:30:28;17.50;99.90
20349;DHT22;10332;50.208;18.988;2022-08-03T03:32:57;17.50;99.90
20349;DHT22;10332;50.208;18.988;2022-08-03T03:35:26;17.50;99.90
20349;DHT22;10332;50.208;18.988;2022-08-03T03:37:54;17.50;99.90
20349;DHT22;10332;50.208;18.988;2022-08-03T03:40:22;17.50;99.90
20349;DHT22;10332;50.208;18.988;2022-08-03T03:42:51;17.50;99.90
20349;DHT22;10332;50.208;18.988;2022-08-03T03:45:18;17.50;99.90
20349;DHT22;10332;50.208;18.988;2022-08-03T03:47:47;17.60;99.90
20349;DHT22;10332;50.208;18.988;2022-08-03T03:50:17;17.60;99.90
20349;DHT22;10332;50.208;18.988;2022-08-03T03:52:45;17.60;99.90
20349;DHT22;10332;50.208;18.988;2022-08-03T03:55:17;17.60;99.90
20349;DHT22;10332;50.208;18.988;2022-08-03T03:57:45;17.70;99.90
20349;DHT22;10332;50.208;18.988;2022-08-03T04:00:13;17.80;99.90
20349;DHT22;10332;50.208;18.988;2022-08-03T04:02:43;17.80;99.90
20349;DHT22;10332;50.208;18.988;2022-08-03T04:05:12;17.90;99.90
20349;DHT22;10332;50.208;18.988;2022-08-03T04:08:00;17.90;99.90
20349;DHT22;10332;50.208;18.988;2022-08-03T04:11:23;17.90;99.90
20349;DHT22;10332;50.208;18.988;2022-08-03T04:14:08;17.90;99.90
20349;DHT22;10332;50.208;18.988;2022-08-03T04:16:44;17.90;99.90
20349;DHT22;10332;50.208;18.988;2022-08-03T04:19:19;18.00;99.90
20349;DHT22;10332;50.208;18.988;2022-08-03T04:21:56;18.00;99.90
20349;DHT22;10332;50.208;18.988;2022-08-03T04:24:42;18.00;99.90
20349;DHT22;10332;50.208;18.988;2022-08-03T04:27:16;18.10;99.90
20349;DHT22;10332;50.208;18.988;2022-08-03T04:29:50;18.10;99.90
20349;DHT22;10332;50.208;18.988;2022-08-03T04:32:22;18.10;99.90
20349;DHT22;10332;50.208;18.988;2022-08-03T04:34:54;18.20;99.90
20349;DHT22;10332;50.208;18.988;2022-08-03T04:40:09;18.30;99.90
20349;DHT22;10332;50.208;18.988;2022-08-03T04:42:39;18.30;99.90
20349;DHT22;10332;50.208;18.988;2022-08-03T04:45:12;18.30;99.90
20349;DHT22;10332;50.208;18.988;2022-08-03T04:47:42;18.40;99.90
20349;DHT22;10332;50.208;18.988;2022-08-03T04:50:10;18.50;99.90
20349;DHT22;10332;50.208;18.988;2022-08-03T04:52:43;18.60;99.90
20349;DHT22;10332;50.208;18.988;2022-08-03T04:55:11;18.70;99.90
20349;DHT22;10332;50.208;18.988;2022-08-03T04:57:38;18.70;99.90
20349;DHT22;10332;50.208;18.988;2022-08-03T05:00:06;18.70;99.90
20349;DHT22;10332;50.208;18.988;2022-08-03T05:02:33;18.90;99.90
20349;DHT22;10332;50.208;18.988;2022-08-03T05:05:07;18.90;99.90
20349;DHT22;10332;50.208;18.988;2022-08-03T05:07:37;19.00;99.90
20349;DHT22;10332;50.208;18.988;2022-08-03T05:10:06;19.00;99.90
20349;DHT22;10332;50.208;18.988;2022-08-03T05:12:43;19.00;99.90
20349;DHT22;10332;50.208;18.988;2022-08-03T05:15:11;19.00;99.90
20349;DHT22;10332;50.208;18.988;2022-08-03T05:17:39;19.10;99.90
20349;DHT22;10332;50.208;18.988;2022-08-03T05:20:07;19.10;99.90
20349;DHT22;10332;50.208;18.988;2022-08-03T05:22:35;19.10;99.90
20349;DHT22;10332;50.208;18.988;2022-08-03T05:25:03;19.00;99.90
20349;DHT22;10332;50.208;18.988;2022-08-03T05:27:31;19.00;99.90
20349;DHT22;10332;50.208;18.988;2022-08-03T05:29:58;18.90;99.90
20349;DHT22;10332;50.208;18.988;2022-08-03T05:32:45;18.90;99.90
20349;DHT22;10332;50.208;18.988;2022-08-03T05:35:13;18.90;99.90
20349;DHT22;10332;50.208;18.988;2022-08-03T05:38:01;19.00;99.90
20349;DHT22;10332;50.208;18.988;2022-08-03T05:40:30;19.00;99.90
20349;DHT22;10332;50.208;18.988;2022-08-03T05:42:58;19.00;99.90
20349;DHT22;10332;50.208;18.988;2022-08-03T05:45:26;19.10;99.90
20349;DHT22;10332;50.208;18.988;2022-08-03T05:47:54;19.20;99.90
20349;DHT22;10332;50.208;18.988;2022-08-03T05:50:22;19.30;99.90
20349;DHT22;10332;50.208;18.988;2022-08-03T05:52:49;19.40;99.90
20349;DHT22;10332;50.208;18.988;2022-08-03T05:55:17;19.50;99.90
20349;DHT22;10332;50.208;18.988;2022-08-03T05:57:45;19.60;99.90
20349;DHT22;10332;50.208;18.988;2022-08-03T06:00:15;19.70;99.90
20349;DHT22;10332;50.208;18.988;2022-08-03T06:02:44;19.80;99.90
20349;DHT22;10332;50.208;18.988;2022-08-03T06:05:12;19.80;99.90
20349;DHT22;10332;50.208;18.988;2022-08-03T06:07:39;19.90;99.90
20349;DHT22;10332;50.208;18.988;2022-08-03T06:10:07;19.90;99.90
20349;DHT22;10332;50.208;18.988;2022-08-03T06:12:55;20.00;99.90
20349;DHT22;10332;50.208;18.988;2022-08-03T06:15:22;20.00;99.90
20349;DHT22;10332;50.208;18.988;2022-08-03T06:17:54;20.00;99.90
20349;DHT22;10332;50.208;18.988;2022-08-03T06:20:27;20.10;99.90
20349;DHT22;10332;50.208;18.988;2022-08-03T06:22:56;20.10;99.90
20349;DHT22;10332;50.208;18.988;2022-08-03T06:25:27;20.10;99.90
20349;DHT22;10332;50.208;18.988;2022-08-03T06:27:55;20.30;99.90
20349;DHT22;10332;50.208;18.988;2022-08-03T06:30:22;20.40;99.90
20349;DHT22;10332;50.208;18.988;2022-08-03T06:32:50;20.60;99.90
20349;DHT22;10332;50.208;18.988;2022-08-03T06:35:19;20.70;99.90
20349;DHT22;10332;50.208;18.988;2022-08-03T06:37:50;20.90;99.90
20349;DHT22;10332;50.208;18.988;2022-08-03T06:40:20;21.20;99.90
20349;DHT22;10332;50.208;18.988;2022-08-03T06:42:56;21.30;99.90
20349;DHT22;10332;50.208;18.988;2022-08-03T06:45:24;21.60;99.90
20349;DHT22;10332;50.208;18.988;2022-08-03T06:48:09;21.80;99.90
20349;DHT22;10332;50.208;18.988;2022-08-03T06:50:39;22.00;99.90
20349;DHT22;10332;50.208;18.988;2022-08-03T06:53:08;22.20;99.90
20349;DHT22;10332;50.208;18.988;2022-08-03T06:55:47;22.40;99.90
20349;DHT22;10332;50.208;18.988;2022-08-03T06:58:20;22.60;99.90
20349;DHT22;10332;50.208;18.988;2022-08-03T07:00:48;22.70;99.90
20349;DHT22;10332;50.208;18.988;2022-08-03T07:03:16;22.90;99.90
20349;DHT22;10332;50.208;18.988;2022-08-03T07:05:43;23.00;99.90
20349;DHT22;10332;50.208;18.988;2022-08-03T07:08:14;23.00;99.90
20349;DHT22;10332;50.208;18.988;2022-08-03T07:10:42;23.00;99.90
20349;DHT22;10332;50.208;18.988;2022-08-03T07:13:10;23.00;99.90
20349;DHT22;10332;50.208;18.988;2022-08-03T07:15:38;23.10;99.90
20349;DHT22;10332;50.208;18.988;2022-08-03T07:18:22;23.30;99.90
20349;DHT22;10332;50.208;18.988;2022-08-03T07:20:58;23.50;99.90
20349;DHT22;10332;50.208;18.988;2022-08-03T07:23:26;23.60;99.90
20349;DHT22;10332;50.208;18.988;2022-08-03T07:25:53;23.70;99.90
20349;DHT22;10332;50.208;18.988;2022-08-03T07:28:20;23.80;99.90
20349;DHT22;10332;50.208;18.988;2022-08-03T07:30:48;23.90;99.90
20349;DHT22;10332;50.208;18.988;2022-08-03T07:33:15;24.00;99.50
20349;DHT22;10332;50.208;18.988;2022-08-03T07:35:42;24.10;97.90
20349;DHT22;10332;50.208;18.988;2022-08-03T07:38:10;24.20;98.00
20349;DHT22;10332;50.208;18.988;2022-08-03T07:40:37;24.30;97.90
20349;DHT22;10332;50.208;18.988;2022-08-03T07:43:12;24.40;98.10
20349;DHT22;10332;50.208;18.988;2022-08-03T07:45:39;24.60;97.40
20349;DHT22;10332;50.208;18.988;2022-08-03T07:48:06;24.70;96.20
20349;DHT22;10332;50.208;18.988;2022-08-03T07:50:39;24.90;95.20
20349;DHT22;10332;50.208;18.988;2022-08-03T07:53:06;25.10;95.10
20349;DHT22;10332;50.208;18.988;2022-08-03T07:55:34;25.30;94.10
20349;DHT22;10332;50.208;18.988;2022-08-03T07:58:07;25.50;93.80
20349;DHT22;10332;50.208;18.988;2022-08-03T08:00:38;25.70;93.20
20349;DHT22;10332;50.208;18.988;2022-08-03T08:03:06;25.80;92.10
20349;DHT22;10332;50.208;18.988;2022-08-03T08:05:33;26.00;92.00
20349;DHT22;10332;50.208;18.988;2022-08-03T08:08:02;26.20;92.20
20349;DHT22;10332;50.208;18.988;2022-08-03T08:10:30;26.50;92.40
20349;DHT22;10332;50.208;18.988;2022-08-03T08:12:59;26.70;91.80
20349;DHT22;10332;50.208;18.988;2022-08-03T08:15:28;26.80;91.00
20349;DHT22;10332;50.208;18.988;2022-08-03T08:17:59;26.90;88.50
20349;DHT22;10332;50.208;18.988;2022-08-03T08:20:31;27.10;87.20
20349;DHT22;10332;50.208;18.988;2022-08-03T08:23:06;27.30;86.60
20349;DHT22;10332;50.208;18.988;2022-08-03T08:25:54;27.50;84.60
20349;DHT22;10332;50.208;18.988;2022-08-03T08:28:22;27.50;78.10
20349;DHT22;10332;50.208;18.988;2022-08-03T08:31:00;27.40;78.40
20349;DHT22;10332;50.208;18.988;2022-08-03T08:33:28;27.50;78.60
20349;DHT22;10332;50.208;18.988;2022-08-03T08:36:16;27.50;75.40
20349;DHT22;10332;50.208;18.988;2022-08-03T08:38:44;27.60;74.40
20349;DHT22;10332;50.208;18.988;2022-08-03T08:41:13;27.70;73.40
20349;DHT22;10332;50.208;18.988;2022-08-03T08:43:41;27.90;72.90
20349;DHT22;10332;50.208;18.988;2022-08-03T08:46:12;28.00;70.70
20349;DHT22;10332;50.208;18.988;2022-08-03T08:48:49;28.00;71.20
20349;DHT22;10332;50.208;18.988;2022-08-03T08:51:20;28.10;71.90
20349;DHT22;10332;50.208;18.988;2022-08-03T08:53:52;28.30;72.50
20349;DHT22;10332;50.208;18.988;2022-08-03T08:56:24;28.50;70.30
20349;DHT22;10332;50.208;18.988;2022-08-03T08:58:55;28.70;69.10
20349;DHT22;10332;50.208;18.988;2022-08-03T09:01:25;28.90;67.80
20349;DHT22;10332;50.208;18.988;2022-08-03T09:03:54;29.10;65.00
20349;DHT22;10332;50.208;18.988;2022-08-03T09:06:22;29.20;64.10
20349;DHT22;10332;50.208;18.988;2022-08-03T09:08:50;29.40;61.90
20349;DHT22;10332;50.208;18.988;2022-08-03T09:11:22;29.60;60.30
20349;DHT22;10332;50.208;18.988;2022-08-03T09:14:10;29.90;59.00
20349;DHT22;10332;50.208;18.988;2022-08-03T09:16:59;30.10;57.40
20349;DHT22;10332;50.208;18.988;2022-08-03T09:19:32;30.20;54.50
20349;DHT22;10332;50.208;18.988;2022-08-03T09:22:13;30.30;51.50
20349;DHT22;10332;50.208;18.988;2022-08-03T09:25:01;30.40;47.00
20349;DHT22;10332;50.208;18.988;2022-08-03T09:27:53;30.60;46.60
20349;DHT22;10332;50.208;18.988;2022-08-03T09:30:20;31.20;46.50
20349;DHT22;10332;50.208;18.988;2022-08-03T09:33:08;34.80;33.40
20349;DHT22;10332;50.208;18.988;2022-08-03T09:35:45;39.90;13.60
20349;DHT22;10332;50.208;18.988;2022-08-03T09:38:24;44.50;1.00
20349;DHT22;10332;50.208;18.988;2022-08-03T09:40:55;48.40;1.00
20349;DHT22;10332;50.208;18.988;2022-08-03T09:43:27;51.20;1.00
20349;DHT22;10332;50.208;18.988;2022-08-03T09:46:04;53.50;1.00
20349;DHT22;10332;50.208;18.988;2022-08-03T09:48:33;55.50;1.00
20349;DHT22;10332;50.208;18.988;2022-08-03T09:51:03;57.20;1.00
20349;DHT22;10332;50.208;18.988;2022-08-03T09:53:45;58.60;1.00
20349;DHT22;10332;50.208;18.988;2022-08-03T09:59:08;58.30;1.00
20349;DHT22;10332;50.208;18.988;2022-08-03T10:01:37;55.80;1.00
20349;DHT22;10332;50.208;18.988;2022-08-03T10:04:12;54.30;1.00
20349;DHT22;10332;50.208;18.988;2022-08-03T10:06:42;54.30;1.00
20349;DHT22;10332;50.208;18.988;2022-08-03T10:09:15;55.50;1.00
20349;DHT22;10332;50.208;18.988;2022-08-03T10:11:43;56.70;1.00
20349;DHT22;10332;50.208;18.988;2022-08-03T10:14:13;57.20;1.00
20349;DHT22;10332;50.208;18.988;2022-08-03T10:16:49;58.80;1.00
20349;DHT22;10332;50.208;18.988;2022-08-03T10:19:16;60.40;1.00
20349;DHT22;10332;50.208;18.988;2022-08-03T10:21:49;61.00;1.00
20349;DHT22;10332;50.208;18.988;2022-08-03T10:24:25;61.60;1.00
20349;DHT22;10332;50.208;18.988;2022-08-03T10:27:05;62.40;1.00
20349;DHT22;10332;50.208;18.988;2022-08-03T10:29:37;62.10;1.00
20349;DHT22;10332;50.208;18.988;2022-08-03T10:32:17;61.50;1.00
20349;DHT22;10332;50.208;18.988;2022-08-03T10:34:49;59.40;1.00
20349;DHT22;10332;50.208;18.988;2022-08-03T10:37:29;58.20;1.00
20349;DHT22;10332;50.208;18.988;2022-08-03T10:40:01;58.50;1.00
20349;DHT22;10332;50.208;18.988;2022-08-03T10:42:30;58.60;1.00
20349;DHT22;10332;50.208;18.988;2022-08-03T10:45:12;59.00;1.00
20349;DHT22;10332;50.208;18.988;2022-08-03T10:47:46;59.30;1.00
20349;DHT22;10332;50.208;18.988;2022-08-03T10:50:15;60.20;1.00
20349;DHT22;10332;50.208;18.988;2022-08-03T10:52:53;60.60;1.00
20349;DHT22;10332;50.208;18.988;2022-08-03T10:55:38;58.10;1.00
20349;DHT22;10332;50.208;18.988;2022-08-03T11:01:49;51.40;1.00
20349;DHT22;10332;50.208;18.988;2022-08-03T11:04:26;48.30;1.00
20349;DHT22;10332;50.208;18.988;2022-08-03T11:09:45;44.30;1.00
20349;DHT22;10332;50.208;18.988;2022-08-03T11:12:22;43.00;1.00
20349;DHT22;10332;50.208;18.988;2022-08-03T11:15:01;42.10;1.00
20349;DHT22;10332;50.208;18.988;2022-08-03T11:17:34;41.20;1.00
20349;DHT22;10332;50.208;18.988;2022-08-03T11:23:38;39.80;1.00
20349;DHT22;10332;50.208;18.988;2022-08-03T11:26:27;39.40;1.00
20349;DHT22;10332;50.208;18.988;2022-08-03T11:29:30;39.10;1.00
20349;DHT22;10332;50.208;18.988;2022-08-03T11:31:57;38.80;1.00
20349;DHT22;10332;50.208;18.988;2022-08-03T11:34:25;38.20;1.00
20349;DHT22;10332;50.208;18.988;2022-08-03T11:37:18;37.50;1.00
20349;DHT22;10332;50.208;18.988;2022-08-03T11:39:51;37.10;1.00
20349;DHT22;10332;50.208;18.988;2022-08-03T11:44:58;36.30;1.00
20349;DHT22;10332;50.208;18.988;2022-08-03T11:47:28;36.10;1.00
20349;DHT22;10332;50.208;18.988;2022-08-03T11:49:58;36.10;1.00
20349;DHT22;10332;50.208;18.988;2022-08-03T11:52:34;36.10;1.00
20349;DHT22;10332;50.208;18.988;2022-08-03T11:55:09;36.20;1.00
20349;DHT22;10332;50.208;18.988;2022-08-03T11:57:37;36.30;1.00
20349;DHT22;10332;50.208;18.988;2022-08-03T12:00:30;36.10;1.00
20349;DHT22;10332;50.208;18.988;2022-08-03T12:03:07;35.80;1.00
20349;DHT22;10332;50.208;18.988;2022-08-03T12:08:37;35.60;1.00
20349;DHT22;10332;50.208;18.988;2022-08-03T12:11:08;35.40;1.00
20349;DHT22;10332;50.208;18.988;2022-08-03T12:13:38;35.20;1.00
20349;DHT22;10332;50.208;18.988;2022-08-03T12:16:30;35.00;1.00
20349;DHT22;10332;50.208;18.988;2022-08-03T12:19:03;34.80;1.00
20349;DHT22;10332;50.208;18.988;2022-08-03T12:21:33;34.60;1.00
20349;DHT22;10332;50.208;18.988;2022-08-03T12:24:02;34.50;1.00
20349;DHT22;10332;50.208;18.988;2022-08-03T12:26:45;34.40;1.00
20349;DHT22;10332;50.208;18.988;2022-08-03T12:29:25;34.30;1.00
20349;DHT22;10332;50.208;18.988;2022-08-03T12:31:53;34.10;1.00
20349;DHT22;10332;50.208;18.988;2022-08-03T12:34:22;34.10;1.00
20349;DHT22;10332;50.208;18.988;2022-08-03T12:36:51;34.20;1.00
20349;DHT22;10332;50.208;18.988;2022-08-03T12:39:23;34.50;1.00
20349;DHT22;10332;50.208;18.988;2022-08-03T12:41:53;34.70;1.00
20349;DHT22;10332;50.208;18.988;2022-08-03T12:44:32;34.90;1.00
20349;DHT22;10332;50.208;18.988;2022-08-03T12:47:03;34.90;1.00
20349;DHT22;10332;50.208;18.988;2022-08-03T12:52:15;34.50;1.00
20349;DHT22;10332;50.208;18.988;2022-08-03T12:54:57;34.20;1.00
20349;DHT22;10332;50.208;18.988;2022-08-03T12:57:39;33.80;1.00
20349;DHT22;10332;50.208;18.988;2022-08-03T13:00:14;33.60;1.00
20349;DHT22;10332;50.208;18.988;2022-08-03T13:03:06;33.60;1.00
20349;DHT22;10332;50.208;18.988;2022-08-03T13:05:54;33.70;1.00
20349;DHT22;10332;50.208;18.988;2022-08-03T13:08:24;33.60;1.00
20349;DHT22;10332;50.208;18.988;2022-08-03T13:10:52;33.50;1.00
20349;DHT22;10332;50.208;18.988;2022-08-03T13:13:37;33.40;1.00
20349;DHT22;10332;50.208;18.988;2022-08-03T13:16:06;33.60;1.00
20349;DHT22;10332;50.208;18.988;2022-08-03T13:18:33;33.80;1.00
20349;DHT22;10332;50.208;18.988;2022-08-03T13:21:00;33.90;1.00
20349;DHT22;10332;50.208;18.988;2022-08-03T13:23:28;34.00;1.00
20349;DHT22;10332;50.208;18.988;2022-08-03T13:25:55;34.10;1.00
20349;DHT22;10332;50.208;18.988;2022-08-03T13:28:22;34.20;1.00
20349;DHT22;10332;50.208;18.988;2022-08-03T13:30:50;34.20;1.00
20349;DHT22;10332;50.208;18.988;2022-08-03T13:33:17;34.30;1.00
20349;DHT22;10332;50.208;18.988;2022-08-03T13:35:45;34.30;1.00
20349;DHT22;10332;50.208;18.988;2022-08-03T13:38:12;34.40;1.00
20349;DHT22;10332;50.208;18.988;2022-08-03T13:40:43;34.30;1.00
20349;DHT22;10332;50.208;18.988;2022-08-03T13:43:11;34.20;1.00
20349;DHT22;10332;50.208;18.988;2022-08-03T13:45:39;34.10;1.00
20349;DHT22;10332;50.208;18.988;2022-08-03T13:48:06;34.10;1.00
20349;DHT22;10332;50.208;18.988;2022-08-03T13:50:33;34.10;1.00
20349;DHT22;10332;50.208;18.988;2022-08-03T13:53:07;34.00;1.00
20349;DHT22;10332;50.208;18.988;2022-08-03T13:55:34;33.90;1.00
20349;DHT22;10332;50.208;18.988;2022-08-03T13:58:01;33.50;1.00
20349;DHT22;10332;50.208;18.988;2022-08-03T14:00:33;33.30;1.00
20349;DHT22;10332;50.208;18.988;2022-08-03T14:03:01;33.20;1.00
20349;DHT22;10332;50.208;18.988;2022-08-03T14:05:40;33.20;1.00
20349;DHT22;10332;50.208;18.988;2022-08-03T14:08:09;33.10;1.00
20349;DHT22;10332;50.208;18.988;2022-08-03T14:10:39;32.90;1.00
20349;DHT22;10332;50.208;18.988;2022-08-03T14:13:10;32.80;1.00
20349;DHT22;10332;50.208;18.988;2022-08-03T14:15:43;32.90;1.00
20349;DHT22;10332;50.208;18.988;2022-08-03T14:18:18;32.90;1.00
20349;DHT22;10332;50.208;18.988;2022-08-03T14:21:02;33.00;1.00
20349;DHT22;10332;50.208;18.988;2022-08-03T14:23:34;33.20;1.00
20349;DHT22;10332;50.208;18.988;2022-08-03T14:26:07;33.20;1.00
20349;DHT22;10332;50.208;18.988;2022-08-03T14:28:35;33.20;1.00
20349;DHT22;10332;50.208;18.988;2022-08-03T14:31:03;33.10;1.00
20349;DHT22;10332;50.208;18.988;2022-08-03T14:33:41;33.10;1.00
20349;DHT22;10332;50.208;18.988;2022-08-03T14:36:08;33.00;1.00
20349;DHT22;10332;50.208;18.988;2022-08-03T14:38:35;33.10;1.00
20349;DHT22;10332;50.208;18.988;2022-08-03T14:41:03;33.10;1.00
20349;DHT22;10332;50.208;18.988;2022-08-03T14:43:30;33.10;1.00
20349;DHT22;10332;50.208;18.988;2022-08-03T14:46:00;33.00;1.00
20349;DHT22;10332;50.208;18.988;2022-08-03T14:48:27;32.90;1.00
20349;DHT22;10332;50.208;18.988;2022-08-03T14:51:14;32.80;1.00
20349;DHT22;10332;50.208;18.988;2022-08-03T14:53:42;32.70;1.00
20349;DHT22;10332;50.208;18.988;2022-08-03T14:56:09;32.70;1.00
20349;DHT22;10332;50.208;18.988;2022-08-03T14:58:37;32.60;1.00
20349;DHT22;10332;50.208;18.988;2022-08-03T15:01:04;32.50;1.00
20349;DHT22;10332;50.208;18.988;2022-08-03T15:03:53;32.50;1.00
20349;DHT22;10332;50.208;18.988;2022-08-03T15:06:20;32.30;1.00
20349;DHT22;10332;50.208;18.988;2022-08-03T15:08:47;32.20;1.00
20349;DHT22;10332;50.208;18.988;2022-08-03T15:11:35;32.00;1.00
20349;DHT22;10332;50.208;18.988;2022-08-03T15:14:03;31.80;1.00
20349;DHT22;10332;50.208;18.988;2022-08-03T15:16:35;31.70;1.00
20349;DHT22;10332;50.208;18.988;2022-08-03T15:19:04;31.50;1.00
20349;DHT22;10332;50.208;18.988;2022-08-03T15:21:52;31.40;1.00
20349;DHT22;10332;50.208;18.988;2022-08-03T15:24:19;31.40;1.00
20349;DHT22;10332;50.208;18.988;2022-08-03T15:26:46;31.50;1.00
20349;DHT22;10332;50.208;18.988;2022-08-03T15:29:14;31.60;1.00
20349;DHT22;10332;50.208;18.988;2022-08-03T15:32:01;31.60;1.00
20349;DHT22;10332;50.208;18.988;2022-08-03T15:34:35;31.60;1.00
20349;DHT22;10332;50.208;18.988;2022-08-03T15:37:02;31.60;1.00
20349;DHT22;10332;50.208;18.988;2022-08-03T15:39:42;31.60;1.00
20349;DHT22;10332;50.208;18.988;2022-08-03T15:42:28;31.40;1.00
20349;DHT22;10332;50.208;18.988;2022-08-03T15:44:56;31.30;1.00
20349;DHT22;10332;50.208;18.988;2022-08-03T15:47:23;31.20;1.00
20349;DHT22;10332;50.208;18.988;2022-08-03T15:49:54;31.00;1.00
20349;DHT22;10332;50.208;18.988;2022-08-03T15:52:21;30.90;1.00
20349;DHT22;10332;50.208;18.988;2022-08-03T15:54:48;30.80;1.00
20349;DHT22;10332;50.208;18.988;2022-08-03T15:57:16;30.70;1.00
20349;DHT22;10332;50.208;18.988;2022-08-03T15:59:43;30.60;1.00
20349;DHT22;10332;50.208;18.988;2022-08-03T16:02:10;30.50;1.00
20349;DHT22;10332;50.208;18.988;2022-08-03T16:04:38;30.40;1.00
20349;DHT22;10332;50.208;18.988;2022-08-03T16:07:05;30.40;1.00
20349;DHT22;10332;50.208;18.988;2022-08-03T16:09:38;30.30;1.00
20349;DHT22;10332;50.208;18.988;2022-08-03T16:12:10;30.30;1.00
20349;DHT22;10332;50.208;18.988;2022-08-03T16:14:43;30.30;1.00
20349;DHT22;10332;50.208;18.988;2022-08-03T16:17:20;30.30;1.00
20349;DHT22;10332;50.208;18.988;2022-08-03T16:19:49;30.20;1.00
20349;DHT22;10332;50.208;18.988;2022-08-03T16:22:21;30.20;1.00
20349;DHT22;10332;50.208;18.988;2022-08-03T16:24:50;30.10;1.00
20349;DHT22;10332;50.208;18.988;2022-08-03T16:27:20;30.00;1.00
20349;DHT22;10332;50.208;18.988;2022-08-03T16:30:09;30.00;1.00
20349;DHT22;10332;50.208;18.988;2022-08-03T16:32:38;29.90;1.00